createdAt,value
2017-01-31T00:00:02.206Z,1006.48
2017-01-31T00:00:28.363Z,1006.48
2017-01-31T00:00:54.510Z,1006.51
2017-01-31T00:01:20.651Z,1006.49
2017-01-31T00:01:46.784Z,1006.49
2017-01-31T00:02:12.878Z,1006.51
2017-01-31T00:02:39.071Z,1006.44
2017-01-31T00:03:05.198Z,1006.52
2017-01-31T00:03:31.845Z,1006.49
2017-01-31T00:03:57.984Z,1006.49
2017-01-31T00:04:24.132Z,1006.5
2017-01-31T00:04:50.255Z,1006.5
2017-01-31T00:05:16.429Z,1006.48
2017-01-31T00:05:42.551Z,1006.48
2017-01-31T00:06:08.681Z,1006.47
2017-01-31T00:06:34.848Z,1006.49
2017-01-31T00:07:01.005Z,1006.53
2017-01-31T00:07:27.127Z,1006.52
2017-01-31T00:07:53.317Z,1006.57
2017-01-31T00:08:19.472Z,1006.57
2017-01-31T00:08:45.571Z,1006.56
2017-01-31T00:09:11.722Z,1006.58
2017-01-31T00:09:37.826Z,1006.59
2017-01-31T00:10:03.954Z,1006.58
2017-01-31T00:10:30.036Z,1006.56
2017-01-31T00:10:56.192Z,1006.58
2017-01-31T00:11:22.664Z,1006.6
2017-01-31T00:11:48.790Z,1006.58
2017-01-31T00:12:14.942Z,1006.6
2017-01-31T00:12:41.159Z,1006.58
2017-01-31T00:13:07.296Z,1006.59
2017-01-31T00:13:33.410Z,1006.6
2017-01-31T00:13:59.571Z,1006.58
2017-01-31T00:14:25.719Z,1006.6
2017-01-31T00:14:51.842Z,1006.59
2017-01-31T00:15:18.060Z,1006.58
2017-01-31T00:15:44.228Z,1006.59
2017-01-31T00:16:10.365Z,1006.59
2017-01-31T00:16:36.498Z,1006.59
2017-01-31T00:17:02.603Z,1006.58
2017-01-31T00:17:28.743Z,1006.59
2017-01-31T00:17:54.872Z,1006.56
2017-01-31T00:18:21.035Z,1006.57
2017-01-31T00:18:47.173Z,1006.6
2017-01-31T00:19:13.318Z,1006.57
2017-01-31T00:19:39.463Z,1006.58
2017-01-31T00:20:05.597Z,1006.59
2017-01-31T00:20:31.725Z,1006.55
2017-01-31T00:20:57.844Z,1006.57
2017-01-31T00:21:24.039Z,1006.6
2017-01-31T00:21:50.269Z,1006.61
2017-01-31T00:22:16.432Z,1006.6
2017-01-31T00:22:42.589Z,1006.58
2017-01-31T00:23:08.750Z,1006.62
2017-01-31T00:23:34.901Z,1006.63
2017-01-31T00:24:01.070Z,1006.65
2017-01-31T00:24:27.210Z,1006.65
2017-01-31T00:24:53.340Z,1006.66
2017-01-31T00:25:19.432Z,1006.65
2017-01-31T00:25:45.531Z,1006.63
2017-01-31T00:26:11.629Z,1006.63
2017-01-31T00:26:37.766Z,1006.63
2017-01-31T00:27:03.912Z,1006.66
2017-01-31T00:27:30.022Z,1006.65
2017-01-31T00:27:56.165Z,1006.63
2017-01-31T00:28:22.371Z,1006.63
2017-01-31T00:28:48.513Z,1006.68
2017-01-31T00:29:14.677Z,1006.59
2017-01-31T00:29:40.801Z,1006.65
2017-01-31T00:30:06.972Z,1006.67
2017-01-31T00:30:33.103Z,1006.71
2017-01-31T00:30:59.197Z,1006.69
2017-01-31T00:31:25.329Z,1006.65
2017-01-31T00:31:51.485Z,1006.69
2017-01-31T00:32:17.601Z,1006.67
2017-01-31T00:32:43.715Z,1006.67
2017-01-31T00:33:09.840Z,1006.66
2017-01-31T00:33:35.952Z,1006.69
2017-01-31T00:34:02.148Z,1006.72
2017-01-31T00:34:28.282Z,1006.69
2017-01-31T00:34:54.372Z,1006.71
2017-01-31T00:35:20.498Z,1006.69
2017-01-31T00:35:46.636Z,1006.65
2017-01-31T00:36:12.775Z,1006.7
2017-01-31T00:36:38.964Z,1006.7
2017-01-31T00:37:05.077Z,1006.69
2017-01-31T00:37:31.266Z,1006.67
2017-01-31T00:37:57.410Z,1006.68
2017-01-31T00:38:23.525Z,1006.71
2017-01-31T00:38:49.671Z,1006.7
2017-01-31T00:39:15.839Z,1006.7
2017-01-31T00:39:42.001Z,1006.73
2017-01-31T00:40:08.121Z,1006.71
2017-01-31T00:40:34.232Z,1006.67
2017-01-31T00:41:00.347Z,1006.68
2017-01-31T00:41:26.517Z,1006.71
2017-01-31T00:41:52.700Z,1006.69
2017-01-31T00:42:18.847Z,1006.71
2017-01-31T00:42:45.015Z,1006.71
2017-01-31T00:43:11.163Z,1006.69
2017-01-31T00:43:37.339Z,1006.68
2017-01-31T00:44:03.510Z,1006.65
2017-01-31T00:44:29.631Z,1006.66
2017-01-31T00:44:55.791Z,1006.73
2017-01-31T00:45:21.932Z,1006.66
2017-01-31T00:45:48.093Z,1006.68
2017-01-31T00:46:14.207Z,1006.7
2017-01-31T00:46:40.313Z,1006.66
2017-01-31T00:47:06.407Z,1006.73
2017-01-31T00:47:32.568Z,1006.67
2017-01-31T00:47:58.735Z,1006.72
2017-01-31T00:48:24.921Z,1006.69
2017-01-31T00:48:51.091Z,1006.71
2017-01-31T00:49:17.247Z,1006.69
2017-01-31T00:49:43.394Z,1006.7
2017-01-31T00:50:09.584Z,1006.7
2017-01-31T00:50:35.774Z,1006.73
2017-01-31T00:51:01.900Z,1006.69
2017-01-31T00:51:28.033Z,1006.71
2017-01-31T00:51:54.185Z,1006.65
2017-01-31T00:52:20.280Z,1006.73
2017-01-31T00:52:46.431Z,1006.73
2017-01-31T00:53:12.600Z,1006.72
2017-01-31T00:53:38.759Z,1006.71
2017-01-31T00:54:04.892Z,1006.68
2017-01-31T00:54:31.048Z,1006.7
2017-01-31T00:54:57.209Z,1006.72
2017-01-31T00:55:23.400Z,1006.7
2017-01-31T00:55:49.505Z,1006.72
2017-01-31T00:56:15.661Z,1006.73
2017-01-31T00:56:41.828Z,1006.67
2017-01-31T00:57:07.921Z,1006.76
2017-01-31T00:57:34.201Z,1006.73
2017-01-31T00:58:00.269Z,1006.72
2017-01-31T00:58:26.421Z,1006.72
2017-01-31T00:58:52.513Z,1006.71
2017-01-31T00:59:18.651Z,1006.7
2017-01-31T00:59:44.777Z,1006.74
2017-01-31T01:00:10.951Z,1006.71
2017-01-31T01:00:37.088Z,1006.73
2017-01-31T01:01:03.213Z,1006.71
2017-01-31T01:01:29.327Z,1006.7
2017-01-31T01:01:55.455Z,1006.7
2017-01-31T01:02:21.628Z,1006.71
2017-01-31T01:02:47.737Z,1006.74
2017-01-31T01:03:13.917Z,1006.74
2017-01-31T01:03:40.021Z,1006.71
2017-01-31T01:04:06.135Z,1006.7
2017-01-31T01:04:32.271Z,1006.73
2017-01-31T01:04:58.391Z,1006.71
2017-01-31T01:05:24.548Z,1006.69
2017-01-31T01:05:50.741Z,1006.69
2017-01-31T01:06:16.893Z,1006.69
2017-01-31T01:06:43.016Z,1006.69
2017-01-31T01:07:09.149Z,1006.66
2017-01-31T01:07:35.292Z,1006.66
2017-01-31T01:08:01.460Z,1006.69
2017-01-31T01:08:27.604Z,1006.68
2017-01-31T01:08:53.787Z,1006.71
2017-01-31T01:09:19.875Z,1006.67
2017-01-31T01:09:46.003Z,1006.72
2017-01-31T01:10:12.156Z,1006.7
2017-01-31T01:10:38.325Z,1006.7
2017-01-31T01:11:04.488Z,1006.71
2017-01-31T01:11:30.645Z,1006.72
2017-01-31T01:11:56.858Z,1006.73
2017-01-31T01:12:23.031Z,1006.71
2017-01-31T01:12:49.192Z,1006.7
2017-01-31T01:13:15.398Z,1006.7
2017-01-31T01:13:41.580Z,1006.7
2017-01-31T01:14:07.759Z,1006.7
2017-01-31T01:14:33.916Z,1006.68
2017-01-31T01:15:00.097Z,1006.66
2017-01-31T01:15:26.228Z,1006.71
2017-01-31T01:15:52.370Z,1006.67
2017-01-31T01:16:18.540Z,1006.66
2017-01-31T01:16:44.710Z,1006.7
2017-01-31T01:17:10.865Z,1006.69
2017-01-31T01:17:36.956Z,1006.66
2017-01-31T01:18:03.121Z,1006.65
2017-01-31T01:18:29.255Z,1006.65
2017-01-31T01:18:55.391Z,1006.64
2017-01-31T01:19:21.500Z,1006.7
2017-01-31T01:19:47.633Z,1006.68
2017-01-31T01:20:13.756Z,1006.67
2017-01-31T01:20:39.914Z,1006.64
2017-01-31T01:21:06.038Z,1006.64
2017-01-31T01:21:32.145Z,1006.7
2017-01-31T01:21:58.271Z,1006.62
2017-01-31T01:22:24.414Z,1006.67
2017-01-31T01:22:50.546Z,1006.67
2017-01-31T01:23:16.743Z,1006.68
2017-01-31T01:23:42.862Z,1006.68
2017-01-31T01:24:08.988Z,1006.7
2017-01-31T01:24:35.149Z,1006.7
2017-01-31T01:25:01.326Z,1006.69
2017-01-31T01:25:27.443Z,1006.73
2017-01-31T01:25:53.583Z,1006.69
2017-01-31T01:26:19.753Z,1006.74
2017-01-31T01:26:45.885Z,1006.72
2017-01-31T01:27:12.007Z,1006.76
2017-01-31T01:27:38.126Z,1006.73
2017-01-31T01:28:04.234Z,1006.71
2017-01-31T01:28:30.322Z,1006.72
2017-01-31T01:28:56.445Z,1006.73
2017-01-31T01:29:22.614Z,1006.75
2017-01-31T01:29:48.745Z,1006.71
2017-01-31T01:30:14.941Z,1006.72
2017-01-31T01:30:41.078Z,1006.77
2017-01-31T01:31:07.259Z,1006.74
2017-01-31T01:31:33.346Z,1006.71
2017-01-31T01:31:59.487Z,1006.76
2017-01-31T01:32:25.605Z,1006.77
2017-01-31T01:32:51.736Z,1006.78
2017-01-31T01:33:17.853Z,1006.78
2017-01-31T01:33:44.015Z,1006.81
2017-01-31T01:34:10.222Z,1006.77
2017-01-31T01:34:36.410Z,1006.79
2017-01-31T01:35:02.584Z,1006.79
2017-01-31T01:35:28.714Z,1006.82
2017-01-31T01:35:54.843Z,1006.82
2017-01-31T01:36:21.029Z,1006.83
2017-01-31T01:36:47.192Z,1006.83
2017-01-31T01:37:13.363Z,1006.84
2017-01-31T01:37:39.495Z,1006.81
2017-01-31T01:38:05.712Z,1006.81
2017-01-31T01:38:31.801Z,1006.85
2017-01-31T01:38:57.960Z,1006.83
2017-01-31T01:39:24.113Z,1006.84
2017-01-31T01:39:50.276Z,1006.85
2017-01-31T01:40:16.379Z,1006.85
2017-01-31T01:40:42.507Z,1006.89
2017-01-31T01:41:08.652Z,1006.81
2017-01-31T01:41:34.754Z,1006.86
2017-01-31T01:42:00.888Z,1006.86
2017-01-31T01:42:27.036Z,1006.86
2017-01-31T01:42:53.205Z,1006.9
2017-01-31T01:43:19.396Z,1006.89
2017-01-31T01:43:45.515Z,1006.9
2017-01-31T01:44:11.665Z,1006.93
2017-01-31T01:44:37.831Z,1006.93
2017-01-31T01:45:04.019Z,1006.95
2017-01-31T01:45:30.171Z,1006.95
2017-01-31T01:45:56.317Z,1006.94
2017-01-31T01:46:22.472Z,1006.98
2017-01-31T01:46:48.618Z,1006.97
2017-01-31T01:47:14.746Z,1006.97
2017-01-31T01:47:40.967Z,1006.96
2017-01-31T01:48:07.103Z,1007
2017-01-31T01:48:33.216Z,1006.99
2017-01-31T01:48:59.340Z,1006.98
2017-01-31T01:49:25.475Z,1006.97
2017-01-31T01:49:51.600Z,1006.98
2017-01-31T01:50:17.713Z,1006.97
2017-01-31T01:50:43.877Z,1007.01
2017-01-31T01:51:09.983Z,1007
2017-01-31T01:51:36.148Z,1006.97
2017-01-31T01:52:02.249Z,1006.99
2017-01-31T01:52:28.384Z,1006.98
2017-01-31T01:52:54.532Z,1007
2017-01-31T01:53:20.626Z,1007.02
2017-01-31T01:53:46.802Z,1006.98
2017-01-31T01:54:12.919Z,1007
2017-01-31T01:54:39.105Z,1007.02
2017-01-31T01:55:05.249Z,1007
2017-01-31T01:55:31.351Z,1006.99
2017-01-31T01:55:57.514Z,1007.02
2017-01-31T01:56:23.636Z,1007.02
2017-01-31T01:56:49.761Z,1007.03
2017-01-31T01:57:15.925Z,1007.02
2017-01-31T01:57:42.045Z,1007.05
2017-01-31T01:58:08.193Z,1007.05
2017-01-31T01:58:34.355Z,1007
2017-01-31T01:59:00.513Z,1007.02
2017-01-31T01:59:26.673Z,1007.03
2017-01-31T01:59:52.863Z,1007.07
2017-01-31T02:00:19.012Z,1007.04
2017-01-31T02:00:45.206Z,1007.03
2017-01-31T02:01:11.348Z,1007.05
2017-01-31T02:01:37.442Z,1007.08
2017-01-31T02:02:03.585Z,1007.03
2017-01-31T02:02:29.703Z,1007.03
2017-01-31T02:02:55.822Z,1007.04
2017-01-31T02:03:21.953Z,1007.05
2017-01-31T02:03:48.051Z,1007.02
2017-01-31T02:04:14.173Z,1007.01
2017-01-31T02:04:40.329Z,1007.06
2017-01-31T02:05:06.473Z,1006.98
2017-01-31T02:05:32.645Z,1007.02
2017-01-31T02:05:58.793Z,1007.04
2017-01-31T02:06:24.907Z,1007.04
2017-01-31T02:06:51.019Z,1007.02
2017-01-31T02:07:17.142Z,1007.04
2017-01-31T02:07:43.261Z,1007.04
2017-01-31T02:08:09.417Z,1007.06
2017-01-31T02:08:35.605Z,1007.09
2017-01-31T02:09:01.753Z,1007.07
2017-01-31T02:09:27.902Z,1007.05
2017-01-31T02:09:54.033Z,1007.07
2017-01-31T02:10:20.176Z,1007.05
2017-01-31T02:10:46.333Z,1007.06
2017-01-31T02:11:12.479Z,1007.06
2017-01-31T02:11:38.650Z,1007.05
2017-01-31T02:12:04.824Z,1007.1
2017-01-31T02:12:30.928Z,1007.13
2017-01-31T02:12:57.054Z,1007.09
2017-01-31T02:13:23.184Z,1007.09
2017-01-31T02:13:49.362Z,1007.12
2017-01-31T02:14:15.514Z,1007.12
2017-01-31T02:14:41.621Z,1007.08
2017-01-31T02:15:07.710Z,1007.09
2017-01-31T02:15:33.830Z,1007.1
2017-01-31T02:15:59.966Z,1007.1
2017-01-31T02:16:26.093Z,1007.11
2017-01-31T02:16:52.197Z,1007.12
2017-01-31T02:17:18.368Z,1007.11
2017-01-31T02:17:44.483Z,1007.11
2017-01-31T02:18:10.621Z,1007.11
2017-01-31T02:18:36.814Z,1007.1
2017-01-31T02:19:02.938Z,1007.09
2017-01-31T02:19:29.070Z,1007.09
2017-01-31T02:19:55.249Z,1007.12
2017-01-31T02:20:21.316Z,1007.13
2017-01-31T02:20:47.450Z,1007.1
2017-01-31T02:21:13.629Z,1007.13
2017-01-31T02:21:39.797Z,1007.14
2017-01-31T02:22:06.017Z,1007.12
2017-01-31T02:22:32.149Z,1007.16
2017-01-31T02:22:58.293Z,1007.2
2017-01-31T02:23:24.423Z,1007.21
2017-01-31T02:23:50.542Z,1007.2
2017-01-31T02:24:16.707Z,1007.18
2017-01-31T02:24:42.863Z,1007.22
2017-01-31T02:25:09.031Z,1007.21
2017-01-31T02:25:35.210Z,1007.16
2017-01-31T02:26:01.338Z,1007.2
2017-01-31T02:26:27.498Z,1007.19
2017-01-31T02:26:53.628Z,1007.22
2017-01-31T02:27:19.793Z,1007.21
2017-01-31T02:27:45.909Z,1007.2
2017-01-31T02:28:12.028Z,1007.2
2017-01-31T02:28:38.168Z,1007.22
2017-01-31T02:29:04.314Z,1007.25
2017-01-31T02:29:30.428Z,1007.2
2017-01-31T02:29:56.560Z,1007.21
2017-01-31T02:30:22.715Z,1007.21
2017-01-31T02:30:48.856Z,1007.26
2017-01-31T02:31:14.992Z,1007.22
2017-01-31T02:31:41.169Z,1007.24
2017-01-31T02:32:07.303Z,1007.25
2017-01-31T02:32:33.430Z,1007.22
2017-01-31T02:32:59.616Z,1007.27
2017-01-31T02:33:25.738Z,1007.27
2017-01-31T02:33:51.834Z,1007.24
2017-01-31T02:34:17.966Z,1007.28
2017-01-31T02:34:44.115Z,1007.28
2017-01-31T02:35:10.208Z,1007.26
2017-01-31T02:35:36.332Z,1007.24
2017-01-31T02:36:02.485Z,1007.29
2017-01-31T02:36:28.625Z,1007.27
2017-01-31T02:36:54.739Z,1007.24
2017-01-31T02:37:20.898Z,1007.24
2017-01-31T02:37:47.033Z,1007.21
2017-01-31T02:38:13.125Z,1007.22
2017-01-31T02:38:39.296Z,1007.23
2017-01-31T02:39:05.454Z,1007.25
2017-01-31T02:39:31.555Z,1007.26
2017-01-31T02:39:57.757Z,1007.27
2017-01-31T02:40:23.841Z,1007.27
2017-01-31T02:40:49.970Z,1007.27
2017-01-31T02:41:16.129Z,1007.3
2017-01-31T02:41:42.245Z,1007.25
2017-01-31T02:42:08.363Z,1007.26
2017-01-31T02:42:34.534Z,1007.23
2017-01-31T02:43:00.652Z,1007.21
2017-01-31T02:43:26.736Z,1007.26
2017-01-31T02:43:52.845Z,1007.27
2017-01-31T02:44:18.960Z,1007.24
2017-01-31T02:44:45.117Z,1007.27
2017-01-31T02:45:11.238Z,1007.26
2017-01-31T02:45:37.363Z,1007.31
2017-01-31T02:46:03.534Z,1007.27
2017-01-31T02:46:29.705Z,1007.3
2017-01-31T02:46:55.882Z,1007.29
2017-01-31T02:47:22.017Z,1007.3
2017-01-31T02:47:48.193Z,1007.3
2017-01-31T02:48:14.338Z,1007.31
2017-01-31T02:48:40.525Z,1007.33
2017-01-31T02:49:06.684Z,1007.31
2017-01-31T02:49:32.823Z,1007.33
2017-01-31T02:49:58.987Z,1007.31
2017-01-31T02:50:25.152Z,1007.31
2017-01-31T02:50:51.292Z,1007.31
2017-01-31T02:51:17.414Z,1007.32
2017-01-31T02:51:43.565Z,1007.31
2017-01-31T02:52:09.673Z,1007.31
2017-01-31T02:52:35.835Z,1007.29
2017-01-31T02:53:01.925Z,1007.3
2017-01-31T02:53:28.088Z,1007.32
2017-01-31T02:53:54.282Z,1007.3
2017-01-31T02:54:20.367Z,1007.28
2017-01-31T02:54:46.523Z,1007.3
2017-01-31T02:55:12.680Z,1007.31
2017-01-31T02:55:38.801Z,1007.31
2017-01-31T02:56:04.961Z,1007.3
2017-01-31T02:56:31.101Z,1007.31
2017-01-31T02:56:57.206Z,1007.32
2017-01-31T02:57:23.353Z,1007.29
2017-01-31T02:57:49.467Z,1007.33
2017-01-31T02:58:15.564Z,1007.32
2017-01-31T02:58:41.728Z,1007.3
2017-01-31T02:59:07.873Z,1007.28
2017-01-31T02:59:33.967Z,1007.27
2017-01-31T03:00:00.101Z,1007.29
2017-01-31T03:00:26.250Z,1007.28
2017-01-31T03:00:52.396Z,1007.28
2017-01-31T03:01:18.523Z,1007.28
2017-01-31T03:01:44.675Z,1007.28
2017-01-31T03:02:10.785Z,1007.25
2017-01-31T03:02:36.948Z,1007.27
2017-01-31T03:03:03.043Z,1007.3
2017-01-31T03:03:29.213Z,1007.25
2017-01-31T03:03:55.329Z,1007.25
2017-01-31T03:04:21.515Z,1007.26
2017-01-31T03:04:47.689Z,1007.27
2017-01-31T03:05:13.813Z,1007.25
2017-01-31T03:05:39.904Z,1007.29
2017-01-31T03:06:06.035Z,1007.26
2017-01-31T03:06:32.183Z,1007.25
2017-01-31T03:06:58.361Z,1007.25
2017-01-31T03:07:24.496Z,1007.27
2017-01-31T03:07:50.652Z,1007.27
2017-01-31T03:08:16.799Z,1007.32
2017-01-31T03:08:42.945Z,1007.27
2017-01-31T03:09:09.163Z,1007.25
2017-01-31T03:09:35.309Z,1007.27
2017-01-31T03:10:01.457Z,1007.26
2017-01-31T03:10:27.618Z,1007.28
2017-01-31T03:10:53.713Z,1007.29
2017-01-31T03:11:19.828Z,1007.27
2017-01-31T03:11:45.964Z,1007.29
2017-01-31T03:12:12.145Z,1007.31
2017-01-31T03:12:38.318Z,1007.27
2017-01-31T03:13:04.445Z,1007.28
2017-01-31T03:13:30.571Z,1007.29
2017-01-31T03:13:56.728Z,1007.3
2017-01-31T03:14:22.894Z,1007.31
2017-01-31T03:14:49.032Z,1007.29
2017-01-31T03:15:15.144Z,1007.29
2017-01-31T03:15:41.247Z,1007.3
2017-01-31T03:16:07.408Z,1007.28
2017-01-31T03:16:33.531Z,1007.26
2017-01-31T03:16:59.680Z,1007.29
2017-01-31T03:17:25.811Z,1007.26
2017-01-31T03:17:51.930Z,1007.29
2017-01-31T03:18:18.089Z,1007.28
2017-01-31T03:18:44.209Z,1007.26
2017-01-31T03:19:10.387Z,1007.26
2017-01-31T03:19:36.554Z,1007.28
2017-01-31T03:20:02.698Z,1007.28
2017-01-31T03:20:28.838Z,1007.29
2017-01-31T03:20:54.972Z,1007.27
2017-01-31T03:21:21.066Z,1007.24
2017-01-31T03:21:47.162Z,1007.28
2017-01-31T03:22:13.328Z,1007.23
2017-01-31T03:22:39.517Z,1007.28
2017-01-31T03:23:05.660Z,1007.26
2017-01-31T03:23:31.790Z,1007.29
2017-01-31T03:23:57.966Z,1007.32
2017-01-31T03:24:24.155Z,1007.27
2017-01-31T03:24:50.271Z,1007.33
2017-01-31T03:25:16.386Z,1007.34
2017-01-31T03:25:42.500Z,1007.31
2017-01-31T03:26:08.598Z,1007.35
2017-01-31T03:26:34.738Z,1007.33
2017-01-31T03:27:00.873Z,1007.3
2017-01-31T03:27:27.033Z,1007.29
2017-01-31T03:27:53.149Z,1007.29
2017-01-31T03:28:19.338Z,1007.33
2017-01-31T03:28:45.442Z,1007.35
2017-01-31T03:29:11.557Z,1007.28
2017-01-31T03:29:37.677Z,1007.34
2017-01-31T03:30:03.878Z,1007.32
2017-01-31T03:30:30.040Z,1007.34
2017-01-31T03:30:56.232Z,1007.32
2017-01-31T03:31:22.411Z,1007.34
2017-01-31T03:31:48.513Z,1007.34
2017-01-31T03:32:14.672Z,1007.32
2017-01-31T03:32:40.817Z,1007.34
2017-01-31T03:33:06.920Z,1007.32
2017-01-31T03:33:33.063Z,1007.33
2017-01-31T03:33:59.169Z,1007.35
2017-01-31T03:34:25.261Z,1007.34
2017-01-31T03:34:51.436Z,1007.36
2017-01-31T03:35:17.562Z,1007.35
2017-01-31T03:35:43.696Z,1007.36
2017-01-31T03:36:09.787Z,1007.3
2017-01-31T03:36:35.911Z,1007.4
2017-01-31T03:37:02.093Z,1007.35
2017-01-31T03:37:28.215Z,1007.39
2017-01-31T03:37:54.341Z,1007.39
2017-01-31T03:38:20.505Z,1007.38
2017-01-31T03:38:46.617Z,1007.4
2017-01-31T03:39:12.739Z,1007.38
2017-01-31T03:39:38.904Z,1007.36
2017-01-31T03:40:05.061Z,1007.35
2017-01-31T03:40:31.158Z,1007.42
2017-01-31T03:40:57.307Z,1007.38
2017-01-31T03:41:23.435Z,1007.38
2017-01-31T03:41:49.563Z,1007.4
2017-01-31T03:42:15.710Z,1007.4
2017-01-31T03:42:41.806Z,1007.4
2017-01-31T03:43:07.941Z,1007.39
2017-01-31T03:43:34.064Z,1007.43
2017-01-31T03:44:00.249Z,1007.45
2017-01-31T03:44:26.415Z,1007.42
2017-01-31T03:44:52.540Z,1007.42
2017-01-31T03:45:18.665Z,1007.41
2017-01-31T03:45:44.793Z,1007.42
2017-01-31T03:46:10.963Z,1007.43
2017-01-31T03:46:37.075Z,1007.42
2017-01-31T03:47:03.222Z,1007.41
2017-01-31T03:47:29.358Z,1007.42
2017-01-31T03:47:55.497Z,1007.43
2017-01-31T03:48:21.621Z,1007.46
2017-01-31T03:48:47.764Z,1007.43
2017-01-31T03:49:13.919Z,1007.45
2017-01-31T03:49:40.059Z,1007.46
2017-01-31T03:50:06.242Z,1007.46
2017-01-31T03:50:32.344Z,1007.45
2017-01-31T03:50:58.505Z,1007.49
2017-01-31T03:51:24.625Z,1007.49
2017-01-31T03:51:50.794Z,1007.51
2017-01-31T03:52:16.964Z,1007.48
2017-01-31T03:52:43.092Z,1007.47
2017-01-31T03:53:09.224Z,1007.55
2017-01-31T03:53:35.389Z,1007.47
2017-01-31T03:54:01.548Z,1007.51
2017-01-31T03:54:27.683Z,1007.52
2017-01-31T03:54:53.803Z,1007.51
2017-01-31T03:55:19.919Z,1007.51
2017-01-31T03:55:46.031Z,1007.49
2017-01-31T03:56:12.175Z,1007.47
2017-01-31T03:56:38.295Z,1007.48
2017-01-31T03:57:04.404Z,1007.47
2017-01-31T03:57:30.614Z,1007.5
2017-01-31T03:57:56.720Z,1007.5
2017-01-31T03:58:22.949Z,1007.51
2017-01-31T03:58:49.098Z,1007.45
2017-01-31T03:59:15.213Z,1007.46
2017-01-31T03:59:41.397Z,1007.47
2017-01-31T04:00:07.599Z,1007.51
2017-01-31T04:00:33.752Z,1007.44
2017-01-31T04:00:59.909Z,1007.5
2017-01-31T04:01:26.061Z,1007.5
2017-01-31T04:01:52.600Z,1007.43
2017-01-31T04:02:18.715Z,1007.48
2017-01-31T04:02:44.943Z,1007.48
2017-01-31T04:03:11.072Z,1007.5
2017-01-31T04:03:37.242Z,1007.49
2017-01-31T04:04:03.377Z,1007.46
2017-01-31T04:04:29.511Z,1007.47
2017-01-31T04:04:55.653Z,1007.49
2017-01-31T04:05:21.761Z,1007.49
2017-01-31T04:05:47.881Z,1007.52
2017-01-31T04:06:14.021Z,1007.48
2017-01-31T04:06:40.114Z,1007.52
2017-01-31T04:07:06.281Z,1007.54
2017-01-31T04:07:32.391Z,1007.51
2017-01-31T04:07:58.517Z,1007.53
2017-01-31T04:08:24.646Z,1007.51
2017-01-31T04:08:50.763Z,1007.55
2017-01-31T04:09:16.940Z,1007.56
2017-01-31T04:09:43.077Z,1007.55
2017-01-31T04:10:09.221Z,1007.56
2017-01-31T04:10:35.384Z,1007.56
2017-01-31T04:11:01.589Z,1007.56
2017-01-31T04:11:27.738Z,1007.58
2017-01-31T04:11:53.844Z,1007.53
2017-01-31T04:12:19.956Z,1007.52
2017-01-31T04:12:46.107Z,1007.58
2017-01-31T04:13:12.251Z,1007.55
2017-01-31T04:13:38.383Z,1007.57
2017-01-31T04:14:04.496Z,1007.57
2017-01-31T04:14:30.663Z,1007.55
2017-01-31T04:14:56.827Z,1007.61
2017-01-31T04:15:22.963Z,1007.62
2017-01-31T04:15:49.134Z,1007.59
2017-01-31T04:16:15.316Z,1007.56
2017-01-31T04:16:41.479Z,1007.57
2017-01-31T04:17:07.639Z,1007.59
2017-01-31T04:17:33.778Z,1007.57
2017-01-31T04:17:59.885Z,1007.55
2017-01-31T04:18:26.077Z,1007.58
2017-01-31T04:18:52.242Z,1007.57
2017-01-31T04:19:18.352Z,1007.55
2017-01-31T04:19:44.476Z,1007.62
2017-01-31T04:20:10.671Z,1007.55
2017-01-31T04:20:36.796Z,1007.57
2017-01-31T04:21:02.916Z,1007.56
2017-01-31T04:21:29.089Z,1007.58
2017-01-31T04:21:55.217Z,1007.6
2017-01-31T04:22:21.333Z,1007.63
2017-01-31T04:22:47.470Z,1007.58
2017-01-31T04:23:13.601Z,1007.58
2017-01-31T04:23:39.735Z,1007.59
2017-01-31T04:24:05.897Z,1007.59
2017-01-31T04:24:32.028Z,1007.57
2017-01-31T04:24:58.179Z,1007.59
2017-01-31T04:25:24.299Z,1007.6
2017-01-31T04:25:50.462Z,1007.59
2017-01-31T04:26:16.681Z,1007.58
2017-01-31T04:26:42.807Z,1007.61
2017-01-31T04:27:08.916Z,1007.59
2017-01-31T04:27:35.079Z,1007.6
2017-01-31T04:28:01.241Z,1007.61
2017-01-31T04:28:27.395Z,1007.56
2017-01-31T04:28:53.493Z,1007.62
2017-01-31T04:29:19.630Z,1007.6
2017-01-31T04:29:45.748Z,1007.59
2017-01-31T04:30:11.866Z,1007.57
2017-01-31T04:30:37.962Z,1007.58
2017-01-31T04:31:04.117Z,1007.58
2017-01-31T04:31:30.257Z,1007.59
2017-01-31T04:31:56.426Z,1007.55
2017-01-31T04:32:22.547Z,1007.6
2017-01-31T04:32:48.685Z,1007.58
2017-01-31T04:33:14.777Z,1007.61
2017-01-31T04:33:40.923Z,1007.57
2017-01-31T04:34:07.124Z,1007.59
2017-01-31T04:34:33.217Z,1007.56
2017-01-31T04:34:59.326Z,1007.6
2017-01-31T04:35:25.443Z,1007.61
2017-01-31T04:35:51.566Z,1007.62
2017-01-31T04:36:17.696Z,1007.62
2017-01-31T04:36:43.835Z,1007.62
2017-01-31T04:37:09.975Z,1007.62
2017-01-31T04:37:36.078Z,1007.62
2017-01-31T04:38:02.176Z,1007.63
2017-01-31T04:38:28.309Z,1007.65
2017-01-31T04:38:54.502Z,1007.65
2017-01-31T04:39:20.601Z,1007.68
2017-01-31T04:39:46.711Z,1007.73
2017-01-31T04:40:12.880Z,1007.7
2017-01-31T04:40:39.009Z,1007.67
2017-01-31T04:41:05.158Z,1007.69
2017-01-31T04:41:31.304Z,1007.72
2017-01-31T04:41:57.503Z,1007.69
2017-01-31T04:42:23.590Z,1007.74
2017-01-31T04:42:49.736Z,1007.73
2017-01-31T04:43:15.876Z,1007.75
2017-01-31T04:43:42.022Z,1007.77
2017-01-31T04:44:08.113Z,1007.78
2017-01-31T04:44:34.306Z,1007.78
2017-01-31T04:45:00.428Z,1007.78
2017-01-31T04:45:26.561Z,1007.78
2017-01-31T04:45:52.707Z,1007.82
2017-01-31T04:46:18.851Z,1007.81
2017-01-31T04:46:44.972Z,1007.85
2017-01-31T04:47:11.076Z,1007.86
2017-01-31T04:47:37.168Z,1007.82
2017-01-31T04:48:03.330Z,1007.8
2017-01-31T04:48:29.482Z,1007.83
2017-01-31T04:48:55.649Z,1007.84
2017-01-31T04:49:21.786Z,1007.81
2017-01-31T04:49:47.911Z,1007.84
2017-01-31T04:50:14.027Z,1007.83
2017-01-31T04:50:40.194Z,1007.81
2017-01-31T04:51:06.324Z,1007.82
2017-01-31T04:51:32.461Z,1007.83
2017-01-31T04:51:58.595Z,1007.87
2017-01-31T04:52:24.724Z,1007.84
2017-01-31T04:52:50.821Z,1007.87
2017-01-31T04:53:16.996Z,1007.88
2017-01-31T04:53:43.134Z,1007.88
2017-01-31T04:54:09.270Z,1007.88
2017-01-31T04:54:35.431Z,1007.92
2017-01-31T04:55:01.627Z,1007.94
2017-01-31T04:55:27.765Z,1007.91
2017-01-31T04:55:53.873Z,1007.92
2017-01-31T04:56:20.009Z,1007.92
2017-01-31T04:56:46.108Z,1007.92
2017-01-31T04:57:12.269Z,1007.96
2017-01-31T04:57:38.388Z,1007.96
2017-01-31T04:58:04.536Z,1007.93
2017-01-31T04:58:30.654Z,1007.93
2017-01-31T04:58:56.841Z,1007.94
2017-01-31T04:59:23.004Z,1007.95
2017-01-31T04:59:49.168Z,1007.96
2017-01-31T05:00:15.294Z,1007.94
2017-01-31T05:00:41.402Z,1007.93
2017-01-31T05:01:07.523Z,1007.91
2017-01-31T05:01:33.669Z,1007.93
2017-01-31T05:01:59.811Z,1007.93
2017-01-31T05:02:25.897Z,1007.94
2017-01-31T05:02:52.045Z,1007.97
2017-01-31T05:03:18.149Z,1007.93
2017-01-31T05:03:44.278Z,1007.95
2017-01-31T05:04:10.433Z,1007.93
2017-01-31T05:04:36.631Z,1007.95
2017-01-31T05:05:02.867Z,1007.94
2017-01-31T05:05:29.023Z,1007.92
2017-01-31T05:05:55.144Z,1007.95
2017-01-31T05:06:21.279Z,1007.95
2017-01-31T05:06:47.484Z,1007.94
2017-01-31T05:07:13.582Z,1008
2017-01-31T05:07:39.697Z,1007.94
2017-01-31T05:08:05.806Z,1007.97
2017-01-31T05:08:32.000Z,1007.93
2017-01-31T05:08:58.112Z,1008.03
2017-01-31T05:09:24.238Z,1008.01
2017-01-31T05:09:50.391Z,1008.01
2017-01-31T05:10:16.529Z,1008.03
2017-01-31T05:10:42.623Z,1008.03
2017-01-31T05:11:08.742Z,1008.02
2017-01-31T05:11:34.905Z,1008.05
2017-01-31T05:12:01.066Z,1008.04
2017-01-31T05:12:27.209Z,1008.05
2017-01-31T05:12:53.337Z,1008.05
2017-01-31T05:13:19.477Z,1008.06
2017-01-31T05:13:45.616Z,1008.04
2017-01-31T05:14:11.759Z,1008.06
2017-01-31T05:14:37.898Z,1008.09
2017-01-31T05:15:04.019Z,1008.07
2017-01-31T05:15:30.179Z,1008.05
2017-01-31T05:15:56.267Z,1008.06
2017-01-31T05:16:22.421Z,1008
2017-01-31T05:16:48.554Z,1008.08
2017-01-31T05:17:14.659Z,1008.06